Date,TemperatureHighF,TemperatureAvgF,TemperatureLowF,DewpointHighF,DewpointAvgF,DewpointLowF,HumidityHigh,HumidityAvg,HumidityLow,PressureMaxIn,PressureMinIn,WindSpeedMaxMPH,WindSpeedAvgMPH,GustSpeedMaxMPH,PrecipitationSumIn
2013-2-1,20,17,14,16,13,10,93,83,67,30.02,29.50,17,9,33,0.00
2013-2-2,16,13,6,12,9,4,93,86,76,30.04,29.86,10,3,33,0.00
2013-2-3,25,13,-3,18,9,-5,94,85,64,29.86,29.64,10,1,33,0.00
2013-2-4,18,14,8,16,11,6,93,88,81,29.79,29.66,13,6,33,0.00
2013-2-5,24,16,9,16,12,8,93,84,68,29.85,29.72,3,0,33,0.01
2013-2-6,26,22,18,22,18,10,93,87,58,30.04,29.74,16,6,33,0.00
2013-2-7,25,21,18,14,11,9,70,65,60,30.27,30.13,11,5,12,0.00
2013-2-8,27,22,20,23,17,12,90,80,59,30.12,29.76,11,7,16,0.00
2013-2-11,39,35,32,36,33,28,96,91,84,29.57,29.48,20,8,23,0.09
2013-2-12,33,30,27,29,27,24,93,86,75,29.78,29.53,18,10,26,0.00
2013-2-13,37,29,23,26,23,20,89,79,61,29.74,29.55,6,1,16,0.00
2013-2-14,23,19,15,20,17,13,93,90,88,29.67,29.59,0,0,16,0.00
2013-2-16,26,22,16,19,14,9,89,71,60,29.85,29.73,10,3,12,0.00
2013-2-17,16,12,8,9,6,3,90,78,67,29.90,29.67,25,11,31,0.01
2013-2-18,24,13,5,14,8,2,90,81,62,30.12,29.89,25,6,28,0.00
2013-2-19,38,29,21,33,24,13,98,82,64,29.96,29.49,15,7,22,0.03
2013-2-20,25,21,17,24,15,12,93,79,66,29.80,29.55,18,12,28,0.00
2013-2-21,18,14,10,16,12,8,94,90,88,30.28,29.77,16,9,26,0.00
2013-2-22,32,24,15,26,20,13,95,86,74,30.28,29.99,11,5,14,0.00
2013-2-23,36,33,29,35,31,24,99,92,80,29.99,29.67,12,6,15,0.07
2013-2-24,34,29,27,34,27,25,99,92,81,29.84,29.65,14,6,18,0.01
2013-2-25,36,29,20,32,27,19,98,92,82,30.11,29.84,10,5,18,0.00
2013-2-26,41,29,14,31,24,13,96,82,65,30.13,29.78,12,4,15,0.01
2013-2-27,35,32,29,34,31,28,99,96,86,29.79,29.39,15,7,22,0.29
2013-2-28,36,33,30,35,32,28,100,97,93,29.49,29.39,4,1,9,0.35